Aérodrome :
LOGIN :

S'inscrire | Disclaimer

   EN    FR    IT 

 










Légende :    VFR   VFR Marginal   IFR   IFR Intensif   IFR Très Intensif
Visi : 
Plafond : 
>= 8 km
>= 3000ft
5 à 8 km
1000 à 3000 ft
1500m à 5 km
500 à 1000 ft
800 à 1500m
200 à 500 ft
< 800m
< 200 ft
Symboles :   Orages  Brouillard  Fortes neiges  Fortes précipitations  Vent > 20 kt
SIGMETs :   Divers  Orages  Givrage  Turbulence  Onde Orograph.  Cendres Volcan.







- Altitude de l'aérodrome : 466 ft


LHPA - Pápa

DERNIER METAR :
  • 151115Z 10002KT 9999 -RA BKN020 BKN083 06/04 Q1001 NOSIG RMK WHT

METARs EXPIRÉS :
  • 151045Z 10002KT 9999 -RA BKN020 BKN083 06/04 Q1001 NOSIG RMK WHT
  • 151015Z 16002KT 9999 -RA BKN020 BKN083 06/04 Q1001 NOSIG RMK WHT
  • 150945Z 00000KT 9999 -RA BKN020 BKN083 06/03 Q1000 NOSIG RMK WHT
  • 150915Z 33004KT 9999 -RA BKN020 BKN083 06/03 Q1000 NOSIG RMK WHT
  • 150845Z 30008KT 260V340 9999 -RA BKN027 BKN083 06/04 Q1000 BECMG NSW RMK BLU
  • 150840Z 29010KT 9999 -RA SCT027 BKN083 06/04 Q1000 RMK BLU

TAF TAF LHPA
Valide du 15 à 12h jusqu'au 16 à 12h UTC


151115Z 1512/1612 VRB03KT CAVOK
TEMPO 1512/1518 06006KT 5000 RA SHRA SCT010 BKN025TCU
TEMPO 1518/1523 3000 BR BKN015
TEMPO 1523/1606 36008KT 3000 RA RASN BR BKN010 OVC030
BECMG 1606/1609 32012KT
TEMPO 1609/1612 33012G26KT
Pas de NOTAMs connus pour ce terrain.
1 SIGMET publié pour la FIR Budapest (LHCC) :
 
Orages noyés dans la masse
LHCC SIGMET 05 VALID 151020/151220 LHBP
LHCC BUDAPEST FIR EMBD TS OBS APRX 40KM WID LINE BTN N4645 E01905 - N4705 E02150 TOP FL260 MOV NNE NC=



MET'MAP, la Météo Aéronautique d'un coup d'oeil ! - Copyright ORBIFLY Décembre 2007 - Disclaimer

ORBIFLY MET'MAP TEAM :

Programmation & Développement : Alexandra Zaïnal
Conception & Développement : Baudouin d'Aumeries
Co-Programmation & Développement : Marc-Olivier Méhu
Soutien technique & logistique : Manuel Goepfert

Contact : metmap@orbifly.com




SOURCES & CREDITS :

   NOAA